Amsterdam, Montana
Current Conditions -  °F | °C
As of 5:56 PM on Sunday 23 Nov 2014 (Local Time) from KBZN Reporting Station
Overcast Overcast  
Wind Chill: -2°   Ceiling: 7500
Heat Index:   Visibility: 10mi
Dew Point: -7°   Wind: 10mph
Humidity: 50%   Direction: 220°SW
Pressure: 29.94"   Gusts: NA
Location:  45.7517°N, 111.347°W
Report Text: KBZN 240056Z 22009KT 10SM OVC075 02/M07 A2994 RMK AO2 SLP164 T00221072
Loading
Personal Weather Stations






























Interactive Weather Map New forecast layout! Learn more

10-Day Weather Forecast

Advertisements
Track Severe Weather on mobile